• Join FlightAware (Why Join?)
  • Login
  • US Flag 
09:36PM EST


 

Airport Tracker/Info


-or-


 

Live Flight TrackerFlight Track Log ✈ SWA1707 ✈ 23-Apr-2013 ✈ KBNA - KMSY

Flight Track Log - Related Links

Times and Time Zones

All times are in EDT time to prevent confusion due to time zone crossing. See the SWA1707 flight status page for this flight to view local times or setup timezone preferences in your user account.

Time Position Orientation Groundspeed Altitude Reporting Facility
EDT Latitude Longitude Course Direction KTS MPH feet Rate Location/Type
06:00PM 36.0500 -86.7333 219° Southwest 212 244 4,400  Level Nashville TRACON
06:01PM 35.9833 -86.8000 219° Southwest 259 298 8,000 2,940 Climbing Nashville TRACON
06:02PM 35.9425 -86.8625 231° Southwest 267 307 10,700 2,280 Climbing Memphis Center
06:03PM 35.8842 -86.9367 226° Southwest 299 344 12,600 2,340 Climbing Memphis Center
06:04PM 35.8153 -87.0164 223° Southwest 326 375 15,400 2,400 Climbing Memphis Center
06:05PM 35.7381 -87.0883 217° Southwest 350 403 17,500 2,400 Climbing Memphis Center
06:06PM 35.6442 -87.1664 214° Southwest 373 429 20,200 2,580 Climbing Memphis Center
06:07PM 35.5539 -87.2258 208° Southwest 373 429 22,700 1,800 Climbing Memphis Center
06:08PM 35.4575 -87.2881 208° Southwest 380 437 23,900 1,140 Climbing Memphis Center
06:09PM 35.3589 -87.3478 206° Southwest 396 456 25,000 600 Climbing Memphis Center
06:10PM 35.2447 -87.3772 192° South 403 464 25,100 900 Climbing Memphis Center
06:11PM 35.1267 -87.4094 193° South 415 478 26,800 1,620 Climbing Memphis Center
06:12PM 35.0156 -87.4717 205° Southwest 436 502 28,400 1,860 Climbing Memphis Center
06:13PM 34.9083 -87.5286 204° Southwest 447 514 30,600 1,800 Climbing Memphis Center
06:14PM 34.8072 -87.5850 205° Southwest 422 486 32,000 660 Climbing Memphis Center
06:15PM 34.7083 -87.6389 204° Southwest 417 480 32,000  Level Memphis Center
06:16PM 34.6011 -87.6978 204° Southwest 417 480 32,000 240 Level Memphis Center
06:17PM 34.4919 -87.7592 205° Southwest 417 480 32,500 960 Climbing Memphis Center
06:18PM 34.3844 -87.8128 202° Southwest 423 487 34,000 1,320 Climbing Memphis Center
06:19PM 34.2811 -87.8661 203° Southwest 417 480 35,200 960 Climbing Memphis Center
06:20PM 34.1800 -87.9192 203° Southwest 411 473 36,000 360 Climbing Memphis Center
06:21PM 34.0747 -87.9775 205° Southwest 406 467 36,000  Level Memphis Center
06:22PM 33.9733 -88.0303 203° Southwest 406 467 36,000  Level Memphis Center
06:23PM 33.8700 -88.0856 204° Southwest 406 467 36,000  Level Memphis Center
06:24PM 33.7686 -88.1358 202° Southwest 406 467 36,000  Level Memphis Center
06:25PM 33.6653 -88.1908 204° Southwest 406 467 36,000  Level Memphis Center
06:26PM 33.5642 -88.2456 204° Southwest 406 467 36,000  Level Memphis Center
06:27PM 33.4544 -88.3031 204° Southwest 401 461 36,000  Level Memphis Center
06:28PM 33.3467 -88.3553 202° Southwest 406 467 36,000  Level Memphis Center
06:29PM 33.2453 -88.4122 205° Southwest 406 467 36,000  Level Memphis Center
06:30PM 33.1417 -88.4667 204° Southwest 406 467 36,000 -420 Level Memphis Center
06:31PM 33.0383 -88.5186 203° Southwest 411 473 35,200 -540 Descending Memphis Center
06:32PM 32.9347 -88.5728 204° Southwest 411 473 35,000 -120 Descending Memphis Center
06:33PM 32.8311 -88.6292 205° Southwest 411 473 35,000  Level Memphis Center
06:34PM 32.7678 -88.7317 234° Southwest 384 442 35,000  Level Memphis Center
06:35PM 32.7064 -88.8339 235° Southwest 384 442 35,000  Level Memphis Center
06:36PM 32.6428 -88.9386 234° Southwest 389 448 35,000  Level Memphis Center
06:37PM 32.5794 -89.0433 234° Southwest 394 453 35,000  Level Memphis Center
06:38PM 32.5136 -89.1525 234° Southwest 399 459 35,000  Level Memphis Center
06:39PM 32.4500 -89.2544 234° Southwest 399 459 35,000  Level Memphis Center
06:40PM 32.3775 -89.3511 228° Southwest 399 459 35,000 -420 Level Memphis Center
06:41PM 32.2567 -89.3722 188° South 387 445 34,200 -900 Descending Memphis Center
06:42PM 32.1400 -89.3956 190° South 406 467 33,200 -600 Descending Memphis Center
06:43PM 32.0233 -89.4189 190° South 422 486 33,000 -120 Descending Memphis Center
06:44PM 31.9067 -89.4422 190° South 427 491 33,000 -120 Level Memphis Center
06:44PM 31.8489 -89.4528 189° South 428 493 32,900 -2,100 Descending Houston Center
06:45PM 31.7294 -89.4769 190° South 433 498 29,700 -2,400 Descending Houston Center
06:46PM 31.6225 -89.5328 204° Southwest 435 501 28,000 -1,380 Descending Houston Center
06:47PM 31.5264 -89.6250 219° Southwest 419 482 26,900 -1,140 Descending Houston Center
06:48PM 31.4392 -89.7067 219° Southwest 408 470 25,700 -1,080 Descending Houston Center
06:49PM 31.3617 -89.7825 220° Southwest 372 428 24,700 -1,080 Descending Houston Center
06:50PM 31.2672 -89.8706 219° Southwest 364 419 23,500 -1,080 Descending Houston Center
06:51PM 31.1872 -89.9386 216° Southwest 360 414 22,500 -1,020 Descending Houston Center
06:53PM 31.0922 -89.9758 199° South 364 419 21,500 -1,020 Descending Houston Center
06:54PM 30.9967 -90.0156 200° South 365 420 20,500 -1,380 Descending Houston Center
06:55PM 30.9047 -90.0528 199° South 354 407 18,700 -1,980 Descending Houston Center
06:55PM 30.8214 -90.0889 200° South 337 388 16,900 -2,460 Descending Houston Center
06:56PM 30.7508 -90.1064 192° South 338 389 15,000 -2,220 Descending Houston Center
06:57PM 30.7067 -90.1111 185° South 339 390 14,200 -1,980 Descending Houston Center
06:57PM 30.6594 -90.1175 187° South 327 376 13,000 -2,460 Descending Houston Center
06:58PM 30.6169 -90.1239 187° South 329 379 11,700 -2,220 Descending Houston Center
06:58PM 30.5700 -90.1308 187° South 323 372 10,800 -1,380 Descending Houston Center
06:59PM 30.5294 -90.1356 186° South 321 369 10,300 -1,200 Descending Houston Center
06:59PM 30.4886 -90.1417 187° South 288 331 9,600 -1,260 Descending Houston Center
07:00PM 30.4533 -90.1475 188° South 290 334 9,000 -1,020 Descending Houston Center
07:01PM 30.3911 -90.1578 188° South 236 272 8,200 -1,200 Descending Houston Center
07:01PM 30.3536 -90.1617 185° South 220 253 7,300 -1,620 Descending Houston Center
07:02PM 30.3139 -90.1678 188° South 228 262 6,200 -1,680 Descending Houston Center
07:02PM 30.2869 -90.1717 187° South 221 254 5,600 -1,500 Descending Houston Center
07:03PM 30.2531 -90.1758 186° South 224 258 4,700 -1,500 Descending Houston Center
07:03PM 30.2267 -90.1789 186° South 217 250 4,100 -1,380 Descending Houston Center
07:04PM 30.1950 -90.1850 189° South 218 251 3,300 -1,320 Descending Houston Center
07:04PM 30.1664 -90.1933 194° South 200 230 2,700 -1,020 Descending Houston Center
07:05PM 30.1450 -90.2006 196° South 201 231 2,300 -600 Descending Houston Center
07:05PM 30.1231 -90.2072 195° South 151 174 2,100 -300 Descending Houston Center
07:06PM 30.0961 -90.2161 196° South 166 191 2,000 -360 Descending Houston Center
07:06PM 30.0836 -90.2208 198° South 152 175 1,800 -780 Descending Houston Center
07:07PM 30.0506 -90.2317 196° South 139 160 1,100 -780 Descending Houston Center
07:08PM 30.0225 -90.2403 195° South 142 163 400 -780 Descending Houston Center
07:08PM 30.0031 -90.2456 193° South 127 146 100 -720 Descending Houston Center
07:10PM 29.9833 -90.2500 190° South  Level FlightAware Approximate
07:17PM 29.9934 -90.2580 190° South  Level Estimated
07:18PM 29.9934 -90.2580 190° South  Level Estimated
07:19PM 29.9934 -90.2580 190° South  Level Estimated